createdAt,value
2019-04-01T00:04:36.668Z,7.71
2019-04-01T00:09:38.299Z,7.68
2019-04-01T00:14:40.001Z,7.66
2019-04-01T00:19:41.725Z,7.63
2019-04-01T00:24:43.422Z,7.57
2019-04-01T00:29:45.091Z,7.54
2019-04-01T00:34:46.623Z,7.50
2019-04-01T00:39:48.307Z,7.46
2019-04-01T00:44:49.987Z,7.40
2019-04-01T00:49:51.689Z,7.36
2019-04-01T00:54:53.385Z,7.34
2019-04-01T00:59:55.082Z,7.37
2019-04-01T01:04:56.633Z,7.34
2019-04-01T01:09:58.288Z,7.29
2019-04-01T01:14:59.871Z,7.27
2019-04-01T01:20:01.678Z,7.27
2019-04-01T01:25:03.514Z,7.21
2019-04-01T01:30:05.435Z,7.18
2019-04-01T01:35:07.123Z,7.16
2019-04-01T01:40:09.268Z,7.11
2019-04-01T01:45:10.955Z,7.08
2019-04-01T01:50:12.654Z,6.95
2019-04-01T01:55:14.203Z,6.85
2019-04-01T02:00:16.079Z,6.82
2019-04-01T02:05:17.740Z,6.75
2019-04-01T02:10:19.405Z,6.69
2019-04-01T02:15:21.073Z,6.60
2019-04-01T02:20:22.747Z,6.53
2019-04-01T02:25:24.453Z,6.46
2019-04-01T02:30:26.025Z,6.40
2019-04-01T02:35:27.865Z,6.35
2019-04-01T02:40:29.519Z,6.30
2019-04-01T02:45:31.193Z,6.26
2019-04-01T02:50:32.912Z,6.26
2019-04-01T02:55:34.556Z,6.24
2019-04-01T03:00:36.203Z,6.17
2019-04-01T03:05:37.895Z,6.09
2019-04-01T03:10:39.589Z,6.07
2019-04-01T03:15:41.257Z,6.05
2019-04-01T03:20:42.925Z,6.00
2019-04-01T03:25:44.608Z,5.94
2019-04-01T03:30:46.292Z,5.93
2019-04-01T03:35:47.930Z,5.92
2019-04-01T03:40:49.662Z,5.88
2019-04-01T03:45:51.360Z,5.86
2019-04-01T03:50:53.080Z,5.81
2019-04-01T03:55:54.753Z,5.78
2019-04-01T04:00:56.424Z,5.72
2019-04-01T04:05:58.145Z,5.68
2019-04-01T04:10:59.843Z,5.64
2019-04-01T04:16:01.417Z,5.63
2019-04-01T04:21:03.190Z,5.55
2019-04-01T04:26:05.575Z,5.56
2019-04-01T04:31:07.284Z,5.49
2019-04-01T04:36:08.953Z,5.45
2019-04-01T04:41:10.652Z,5.38
2019-04-01T04:46:12.386Z,5.32
2019-04-01T04:51:14.127Z,5.31
2019-04-01T04:56:15.865Z,5.31
2019-04-01T05:01:17.538Z,5.31
2019-04-01T05:06:19.099Z,5.30
2019-04-01T05:11:20.816Z,5.31
2019-04-01T05:16:22.474Z,5.31
2019-04-01T05:21:24.143Z,5.31
2019-04-01T05:26:25.797Z,5.36
2019-04-01T05:31:27.754Z,5.38
2019-04-01T05:36:30.827Z,5.43
2019-04-01T05:41:32.760Z,5.48
2019-04-01T05:46:34.453Z,5.58
2019-04-01T05:51:36.139Z,5.64
2019-04-01T05:56:37.890Z,5.67
2019-04-01T06:01:44.667Z,5.71
2019-04-01T06:06:48.866Z,5.74
2019-04-01T06:11:49.831Z,5.82
2019-04-01T06:16:51.933Z,5.87
2019-04-01T06:21:53.603Z,5.90
2019-04-01T06:26:55.351Z,5.91
2019-04-01T06:31:57.530Z,5.99
2019-04-01T06:36:59.168Z,6.06
2019-04-01T06:42:00.800Z,6.16
2019-04-01T06:47:02.508Z,6.19
2019-04-01T06:52:04.162Z,6.26
2019-04-01T06:57:05.818Z,6.36
2019-04-01T07:02:07.487Z,6.42
2019-04-01T07:07:19.013Z,6.49
2019-04-01T07:12:13.045Z,6.53
2019-04-01T07:17:14.576Z,6.59
2019-04-01T07:22:16.126Z,6.67
2019-04-01T07:27:17.683Z,6.77
2019-04-01T07:32:19.254Z,6.90
2019-04-01T07:37:20.955Z,7.00
2019-04-01T07:42:22.672Z,7.06
2019-04-01T07:47:24.376Z,7.13
2019-04-01T07:52:25.985Z,7.24
2019-04-01T07:57:27.940Z,7.30
2019-04-01T08:02:29.516Z,7.36
2019-04-01T08:07:31.155Z,7.40
2019-04-01T08:12:32.798Z,7.44
2019-04-01T08:17:34.434Z,7.53
2019-04-01T08:22:36.083Z,7.61
2019-04-01T08:27:37.734Z,7.65
2019-04-01T08:32:39.395Z,7.71
2019-04-01T08:37:41.049Z,7.78
2019-04-01T08:42:42.582Z,7.79
2019-04-01T08:47:44.247Z,7.85
2019-04-01T08:52:45.911Z,7.96
2019-04-01T08:57:47.563Z,8.05
2019-04-01T09:02:49.233Z,8.13
2019-04-01T09:07:50.886Z,8.20
2019-04-01T09:12:53.151Z,8.28
2019-04-01T09:17:54.828Z,8.37
2019-04-01T09:22:59.077Z,8.46
2019-04-01T09:27:59.906Z,8.61
2019-04-01T09:33:01.544Z,8.76
2019-04-01T09:38:03.211Z,8.83
2019-04-01T09:43:04.740Z,8.88
2019-04-01T09:48:06.382Z,8.94
2019-04-01T09:53:08.052Z,9.00
2019-04-01T09:58:09.737Z,9.13
2019-04-01T10:03:11.395Z,9.26
2019-04-01T10:08:13.063Z,9.35
2019-04-01T10:13:14.641Z,9.43
2019-04-01T10:18:16.205Z,9.52
2019-04-01T10:23:17.852Z,9.64
2019-04-01T10:28:19.516Z,9.77
2019-04-01T10:33:21.251Z,9.95
2019-04-01T10:38:22.817Z,10.11
2019-04-01T10:43:24.508Z,10.23
2019-04-01T10:48:26.069Z,10.35
2019-04-01T10:53:27.797Z,10.48
2019-04-01T10:58:29.400Z,10.61
2019-04-01T11:03:31.109Z,10.71
2019-04-01T11:08:32.833Z,10.79
2019-04-01T11:13:34.346Z,10.94
2019-04-01T11:18:35.852Z,11.12
2019-04-01T11:23:37.398Z,11.31
2019-04-01T11:28:39.239Z,11.99
2019-04-01T11:33:40.927Z,23.13
2019-04-01T11:38:42.948Z,22.76
2019-04-01T11:43:44.609Z,19.41
2019-04-01T11:48:46.363Z,18.98
2019-04-01T11:53:48.051Z,19.36
2019-04-01T11:58:49.758Z,17.74
2019-04-01T12:03:51.507Z,17.74
2019-04-01T12:08:53.176Z,16.97
2019-04-01T12:13:54.845Z,16.70
2019-04-01T12:18:56.380Z,16.71
2019-04-01T12:23:58.696Z,16.73
2019-04-01T12:29:00.362Z,16.41
2019-04-01T12:34:01.956Z,16.14
2019-04-01T12:39:05.824Z,16.70
2019-04-01T12:44:07.386Z,17.32
2019-04-01T12:49:09.168Z,17.80
2019-04-01T12:54:10.832Z,17.91
2019-04-01T12:59:12.432Z,17.69
2019-04-01T13:04:14.163Z,17.57
2019-04-01T13:09:15.881Z,17.68
2019-04-01T13:14:17.729Z,18.10
2019-04-01T13:19:19.496Z,18.35
2019-04-01T13:24:21.053Z,18.54
2019-04-01T13:29:24.071Z,18.72
2019-04-01T13:34:25.701Z,18.70
2019-04-01T13:39:27.361Z,18.43
2019-04-01T13:44:36.913Z,18.23
2019-04-01T13:49:32.493Z,18.07
2019-04-01T13:54:34.175Z,17.71
2019-04-01T13:59:48.357Z,17.92
2019-04-01T14:04:39.319Z,18.79
2019-04-01T14:09:41.300Z,19.18
2019-04-01T14:14:42.877Z,19.57
2019-04-01T14:19:44.458Z,19.55
2019-04-01T14:24:46.025Z,19.32
2019-04-01T14:29:47.668Z,19.03
2019-04-01T14:34:50.494Z,18.85
2019-04-01T14:39:52.442Z,18.61
2019-04-01T14:44:58.292Z,18.04
2019-04-01T14:50:00.170Z,17.55
2019-04-01T14:55:02.611Z,17.30
2019-04-01T15:00:05.771Z,17.68
2019-04-01T15:05:07.438Z,17.88
2019-04-01T15:10:09.327Z,17.50
2019-04-01T15:15:11.097Z,17.89
2019-04-01T15:20:13.859Z,18.67
2019-04-01T15:25:15.411Z,19.23
2019-04-01T15:30:17.060Z,19.86
2019-04-01T15:35:18.896Z,22.49
2019-04-01T15:40:20.542Z,22.17
2019-04-01T15:45:22.132Z,23.40
2019-04-01T15:50:28.704Z,24.34
2019-04-01T15:55:27.439Z,25.79
2019-04-01T16:00:29.086Z,24.81
2019-04-01T16:05:30.760Z,24.21
2019-04-01T16:10:32.370Z,22.07
2019-04-01T16:15:33.956Z,20.38
2019-04-01T16:20:35.512Z,19.73
2019-04-01T16:25:37.698Z,20.54
2019-04-01T16:30:39.835Z,23.05
2019-04-01T16:35:41.434Z,20.91
2019-04-01T16:40:42.982Z,19.84
2019-04-01T16:45:44.668Z,19.13
2019-04-01T16:50:46.250Z,18.69
2019-04-01T16:55:47.913Z,18.50
2019-04-01T17:00:49.482Z,18.29
2019-04-01T17:05:51.085Z,17.01
2019-04-01T17:10:52.653Z,16.55
2019-04-01T17:15:54.392Z,16.30
2019-04-01T17:20:55.967Z,15.89
2019-04-01T17:25:57.574Z,15.24
2019-04-01T17:30:59.275Z,14.57
2019-04-01T17:36:00.838Z,13.99
2019-04-01T17:41:02.675Z,13.50
2019-04-01T17:46:04.414Z,13.11
2019-04-01T17:51:06.140Z,12.90
2019-04-01T17:56:07.896Z,12.74
2019-04-01T18:01:10.563Z,12.53
2019-04-01T18:06:12.810Z,12.38
2019-04-01T18:11:16.154Z,12.27
2019-04-01T18:16:17.992Z,12.10
2019-04-01T18:21:19.931Z,12.05
2019-04-01T18:26:21.532Z,11.95
2019-04-01T18:31:23.178Z,11.87
2019-04-01T18:36:24.792Z,11.78
2019-04-01T18:41:26.365Z,11.58
2019-04-01T18:46:28.089Z,11.53
2019-04-01T18:51:29.721Z,11.54
2019-04-01T18:56:31.317Z,11.51
2019-04-01T19:01:33.012Z,11.45
2019-04-01T19:06:35.191Z,11.38
2019-04-01T19:11:38.106Z,11.33
2019-04-01T19:16:39.948Z,11.21
2019-04-01T19:21:41.520Z,11.10
2019-04-01T19:26:43.145Z,11.12
2019-04-01T19:31:44.870Z,11.09
2019-04-01T19:36:46.428Z,11.03
2019-04-01T19:41:48.990Z,10.95
2019-04-01T19:46:50.694Z,10.92
2019-04-01T19:51:52.256Z,10.93
2019-04-01T19:56:53.844Z,10.85
2019-04-01T20:01:55.496Z,10.63
2019-04-01T20:06:57.039Z,10.61
2019-04-01T20:11:58.593Z,10.62
2019-04-01T20:17:02.034Z,10.61
2019-04-01T20:22:06.110Z,10.53
2019-04-01T20:27:07.683Z,10.52
2019-04-01T20:32:17.094Z,10.40
2019-04-01T20:37:13.621Z,10.32
2019-04-01T20:42:17.086Z,10.25
2019-04-01T20:47:18.750Z,10.18
2019-04-01T20:52:21.459Z,10.16
2019-04-01T20:57:23.254Z,10.18
2019-04-01T21:02:24.766Z,10.11
2019-04-01T21:07:26.318Z,9.92
2019-04-01T21:12:27.886Z,9.92
2019-04-01T21:17:29.539Z,9.85
2019-04-01T21:22:31.104Z,9.83
2019-04-01T21:27:32.643Z,9.78
2019-04-01T21:32:34.358Z,9.78
2019-04-01T21:37:36.092Z,9.72
2019-04-01T21:42:37.813Z,9.68
2019-04-01T21:47:40.196Z,9.57
2019-04-01T21:52:42.705Z,9.54
2019-04-01T21:57:44.403Z,9.51
2019-04-01T22:02:46.145Z,9.48
2019-04-01T22:07:47.859Z,9.32
2019-04-01T22:12:52.369Z,9.31
2019-04-01T22:17:53.146Z,9.33
2019-04-01T22:22:54.714Z,9.22
2019-04-01T22:27:56.388Z,9.11
2019-04-01T22:32:58.062Z,9.11
2019-04-01T22:37:59.763Z,9.04
2019-04-01T22:43:01.439Z,8.97
2019-04-01T22:48:03.276Z,8.90
2019-04-01T22:53:05.134Z,8.88
2019-04-01T22:58:06.826Z,8.93
2019-04-01T23:03:08.389Z,8.89
2019-04-01T23:08:10.056Z,8.86
2019-04-01T23:13:11.747Z,8.90
2019-04-01T23:18:13.423Z,8.92
2019-04-01T23:23:15.121Z,8.90
2019-04-01T23:28:16.799Z,8.69
2019-04-01T23:33:18.469Z,8.63
2019-04-01T23:38:20.123Z,8.55
2019-04-01T23:43:21.684Z,8.51
2019-04-01T23:48:23.274Z,8.46
2019-04-01T23:53:24.821Z,8.44
2019-04-01T23:58:26.502Z,8.34
